sensor_id;sensor_type;location;lat;lon;timestamp;P1;durP1;ratioP1;P2;durP2;ratioP2
66179;SDS011;52986;44.028;20.466;2023-03-23T00:01:06;40.33;;;18.58;;
66179;SDS011;52986;44.028;20.466;2023-03-23T00:06:24;40.25;;;17.23;;
66179;SDS011;52986;44.028;20.466;2023-03-23T00:08:52;39.67;;;16.80;;
66179;SDS011;52986;44.028;20.466;2023-03-23T00:11:25;38.65;;;15.02;;
66179;SDS011;52986;44.028;20.466;2023-03-23T00:13:54;33.10;;;15.10;;
66179;SDS011;52986;44.028;20.466;2023-03-23T00:16:23;31.67;;;15.45;;
66179;SDS011;52986;44.028;20.466;2023-03-23T00:19:00;33.05;;;15.75;;
66179;SDS011;52986;44.028;20.466;2023-03-23T00:21:29;35.60;;;17.27;;
66179;SDS011;52986;44.028;20.466;2023-03-23T00:24:07;37.17;;;18.60;;
66179;SDS011;52986;44.028;20.466;2023-03-23T00:26:43;41.90;;;20.65;;
66179;SDS011;52986;44.028;20.466;2023-03-23T00:29:13;42.00;;;19.52;;
66179;SDS011;52986;44.028;20.466;2023-03-23T00:31:39;42.17;;;20.60;;
66179;SDS011;52986;44.028;20.466;2023-03-23T00:34:05;42.90;;;19.60;;
66179;SDS011;52986;44.028;20.466;2023-03-23T00:36:31;38.97;;;17.05;;
66179;SDS011;52986;44.028;20.466;2023-03-23T00:38:59;32.83;;;15.73;;
66179;SDS011;52986;44.028;20.466;2023-03-23T00:41:26;33.17;;;16.02;;
66179;SDS011;52986;44.028;20.466;2023-03-23T00:43:54;33.47;;;16.02;;
66179;SDS011;52986;44.028;20.466;2023-03-23T00:46:21;34.15;;;15.98;;
66179;SDS011;52986;44.028;20.466;2023-03-23T00:48:47;35.60;;;16.52;;
66179;SDS011;52986;44.028;20.466;2023-03-23T00:51:13;32.45;;;15.48;;
66179;SDS011;52986;44.028;20.466;2023-03-23T00:53:39;33.80;;;16.60;;
66179;SDS011;52986;44.028;20.466;2023-03-23T00:56:05;33.60;;;15.75;;
66179;SDS011;52986;44.028;20.466;2023-03-23T00:58:32;33.08;;;15.63;;
66179;SDS011;52986;44.028;20.466;2023-03-23T01:00:57;34.30;;;15.88;;
66179;SDS011;52986;44.028;20.466;2023-03-23T01:03:23;33.28;;;15.63;;
66179;SDS011;52986;44.028;20.466;2023-03-23T01:05:50;35.20;;;16.35;;
66179;SDS011;52986;44.028;20.466;2023-03-23T01:08:16;30.17;;;15.10;;
66179;SDS011;52986;44.028;20.466;2023-03-23T01:10:43;31.38;;;15.00;;
66179;SDS011;52986;44.028;20.466;2023-03-23T01:13:13;34.47;;;15.70;;
66179;SDS011;52986;44.028;20.466;2023-03-23T01:15:39;34.55;;;15.93;;
66179;SDS011;52986;44.028;20.466;2023-03-23T01:18:04;33.00;;;14.65;;
66179;SDS011;52986;44.028;20.466;2023-03-23T01:20:30;32.35;;;13.98;;
66179;SDS011;52986;44.028;20.466;2023-03-23T01:22:59;31.65;;;15.38;;
66179;SDS011;52986;44.028;20.466;2023-03-23T01:25:29;31.23;;;14.63;;
66179;SDS011;52986;44.028;20.466;2023-03-23T01:27:56;29.52;;;14.27;;
66179;SDS011;52986;44.028;20.466;2023-03-23T01:30:23;29.63;;;13.85;;
66179;SDS011;52986;44.028;20.466;2023-03-23T01:32:49;30.40;;;13.52;;
66179;SDS011;52986;44.028;20.466;2023-03-23T01:35:15;33.50;;;15.10;;
66179;SDS011;52986;44.028;20.466;2023-03-23T01:37:40;33.13;;;14.30;;
66179;SDS011;52986;44.028;20.466;2023-03-23T01:40:06;28.08;;;13.70;;
66179;SDS011;52986;44.028;20.466;2023-03-23T01:42:33;29.48;;;13.60;;
66179;SDS011;52986;44.028;20.466;2023-03-23T01:50:34;31.63;;;14.82;;
66179;SDS011;52986;44.028;20.466;2023-03-23T01:53:06;35.90;;;16.15;;
66179;SDS011;52986;44.028;20.466;2023-03-23T01:55:35;35.78;;;16.05;;
66179;SDS011;52986;44.028;20.466;2023-03-23T01:58:03;36.88;;;15.73;;
66179;SDS011;52986;44.028;20.466;2023-03-23T02:00:30;41.33;;;17.77;;
66179;SDS011;52986;44.028;20.466;2023-03-23T02:02:56;39.38;;;16.75;;
66179;SDS011;52986;44.028;20.466;2023-03-23T02:05:30;37.72;;;16.80;;
66179;SDS011;52986;44.028;20.466;2023-03-23T02:07:59;38.35;;;16.55;;
66179;SDS011;52986;44.028;20.466;2023-03-23T02:10:28;36.88;;;16.58;;
66179;SDS011;52986;44.028;20.466;2023-03-23T02:12:55;39.85;;;16.92;;
66179;SDS011;52986;44.028;20.466;2023-03-23T02:15:20;39.83;;;17.17;;
66179;SDS011;52986;44.028;20.466;2023-03-23T02:17:56;39.08;;;16.17;;
66179;SDS011;52986;44.028;20.466;2023-03-23T02:23:26;30.48;;;14.02;;
66179;SDS011;52986;44.028;20.466;2023-03-23T02:34:25;30.77;;;13.45;;
66179;SDS011;52986;44.028;20.466;2023-03-23T02:39:47;33.67;;;13.77;;
66179;SDS011;52986;44.028;20.466;2023-03-23T02:42:38;30.50;;;13.95;;
66179;SDS011;52986;44.028;20.466;2023-03-23T02:45:05;30.48;;;13.30;;
66179;SDS011;52986;44.028;20.466;2023-03-23T02:47:32;28.05;;;12.85;;
66179;SDS011;52986;44.028;20.466;2023-03-23T02:50:00;26.90;;;11.57;;
66179;SDS011;52986;44.028;20.466;2023-03-23T02:52:30;27.58;;;12.77;;
66179;SDS011;52986;44.028;20.466;2023-03-23T02:54:57;30.15;;;13.73;;
66179;SDS011;52986;44.028;20.466;2023-03-23T02:57:24;30.27;;;14.40;;
66179;SDS011;52986;44.028;20.466;2023-03-23T02:59:51;37.28;;;16.00;;
66179;SDS011;52986;44.028;20.466;2023-03-23T03:02:32;37.78;;;17.17;;
66179;SDS011;52986;44.028;20.466;2023-03-23T03:10:07;31.63;;;14.18;;
66179;SDS011;52986;44.028;20.466;2023-03-23T03:12:52;35.13;;;14.88;;
66179;SDS011;52986;44.028;20.466;2023-03-23T03:15:27;35.30;;;15.25;;
66179;SDS011;52986;44.028;20.466;2023-03-23T03:20:59;38.08;;;14.98;;
66179;SDS011;52986;44.028;20.466;2023-03-23T03:23:27;33.75;;;14.73;;
66179;SDS011;52986;44.028;20.466;2023-03-23T03:25:55;31.10;;;14.48;;
66179;SDS011;52986;44.028;20.466;2023-03-23T03:28:22;32.75;;;14.02;;
66179;SDS011;52986;44.028;20.466;2023-03-23T03:30:53;29.90;;;14.27;;
66179;SDS011;52986;44.028;20.466;2023-03-23T03:33:25;29.50;;;13.07;;
66179;SDS011;52986;44.028;20.466;2023-03-23T03:35:52;30.27;;;13.27;;
66179;SDS011;52986;44.028;20.466;2023-03-23T03:38:19;28.30;;;13.40;;
66179;SDS011;52986;44.028;20.466;2023-03-23T03:40:45;28.50;;;12.75;;
66179;SDS011;52986;44.028;20.466;2023-03-23T03:43:11;28.00;;;13.15;;
66179;SDS011;52986;44.028;20.466;2023-03-23T03:45:36;32.95;;;13.40;;
66179;SDS011;52986;44.028;20.466;2023-03-23T03:48:02;31.10;;;13.93;;
66179;SDS011;52986;44.028;20.466;2023-03-23T03:50:27;31.58;;;14.38;;
66179;SDS011;52986;44.028;20.466;2023-03-23T03:52:53;27.40;;;13.18;;
66179;SDS011;52986;44.028;20.466;2023-03-23T03:55:18;31.88;;;13.73;;
66179;SDS011;52986;44.028;20.466;2023-03-23T03:57:44;30.95;;;14.43;;
66179;SDS011;52986;44.028;20.466;2023-03-23T04:00:10;32.58;;;14.07;;
66179;SDS011;52986;44.028;20.466;2023-03-23T04:02:43;28.38;;;13.80;;
66179;SDS011;52986;44.028;20.466;2023-03-23T04:05:12;30.30;;;13.45;;
66179;SDS011;52986;44.028;20.466;2023-03-23T04:07:38;28.80;;;12.90;;
66179;SDS011;52986;44.028;20.466;2023-03-23T04:10:07;28.88;;;13.85;;
66179;SDS011;52986;44.028;20.466;2023-03-23T04:12:34;28.17;;;13.27;;
66179;SDS011;52986;44.028;20.466;2023-03-23T04:15:00;30.92;;;13.57;;
66179;SDS011;52986;44.028;20.466;2023-03-23T04:17:26;30.70;;;14.18;;
66179;SDS011;52986;44.028;20.466;2023-03-23T04:19:53;33.28;;;14.25;;
66179;SDS011;52986;44.028;20.466;2023-03-23T04:22:22;31.80;;;14.35;;
66179;SDS011;52986;44.028;20.466;2023-03-23T04:24:49;31.25;;;14.77;;
66179;SDS011;52986;44.028;20.466;2023-03-23T04:27:16;29.45;;;13.55;;
66179;SDS011;52986;44.028;20.466;2023-03-23T04:29:42;32.95;;;14.02;;
66179;SDS011;52986;44.028;20.466;2023-03-23T04:32:13;30.83;;;13.15;;
66179;SDS011;52986;44.028;20.466;2023-03-23T04:34:39;31.48;;;13.05;;
66179;SDS011;52986;44.028;20.466;2023-03-23T04:37:05;32.13;;;13.32;;
66179;SDS011;52986;44.028;20.466;2023-03-23T04:39:31;36.05;;;14.18;;
66179;SDS011;52986;44.028;20.466;2023-03-23T04:41:58;35.80;;;14.57;;
66179;SDS011;52986;44.028;20.466;2023-03-23T04:44:26;33.75;;;13.70;;
66179;SDS011;52986;44.028;20.466;2023-03-23T04:46:52;31.45;;;14.20;;
66179;SDS011;52986;44.028;20.466;2023-03-23T04:49:19;32.15;;;13.77;;
66179;SDS011;52986;44.028;20.466;2023-03-23T04:51:46;34.30;;;14.43;;
66179;SDS011;52986;44.028;20.466;2023-03-23T04:54:13;29.48;;;14.00;;
66179;SDS011;52986;44.028;20.466;2023-03-23T04:56:39;30.15;;;13.73;;
66179;SDS011;52986;44.028;20.466;2023-03-23T04:59:06;28.80;;;13.60;;
66179;SDS011;52986;44.028;20.466;2023-03-23T05:01:32;32.13;;;13.93;;
66179;SDS011;52986;44.028;20.466;2023-03-23T05:03:59;32.13;;;14.20;;
66179;SDS011;52986;44.028;20.466;2023-03-23T05:06:25;30.60;;;13.77;;
66179;SDS011;52986;44.028;20.466;2023-03-23T05:08:50;34.63;;;14.70;;
66179;SDS011;52986;44.028;20.466;2023-03-23T05:11:16;35.00;;;14.63;;
66179;SDS011;52986;44.028;20.466;2023-03-23T05:13:41;33.22;;;14.52;;
66179;SDS011;52986;44.028;20.466;2023-03-23T05:16:09;34.55;;;15.40;;
66179;SDS011;52986;44.028;20.466;2023-03-23T05:18:34;31.95;;;15.30;;
66179;SDS011;52986;44.028;20.466;2023-03-23T05:21:01;34.97;;;15.95;;
66179;SDS011;52986;44.028;20.466;2023-03-23T05:23:27;36.83;;;15.90;;
66179;SDS011;52986;44.028;20.466;2023-03-23T05:25:56;43.72;;;19.17;;
66179;SDS011;52986;44.028;20.466;2023-03-23T05:28:25;40.08;;;17.88;;
66179;SDS011;52986;44.028;20.466;2023-03-23T05:30:52;38.70;;;18.70;;
66179;SDS011;52986;44.028;20.466;2023-03-23T05:33:18;43.35;;;16.90;;
66179;SDS011;52986;44.028;20.466;2023-03-23T05:35:45;36.40;;;16.77;;
66179;SDS011;52986;44.028;20.466;2023-03-23T05:38:12;37.55;;;17.02;;
66179;SDS011;52986;44.028;20.466;2023-03-23T05:40:37;34.55;;;16.35;;
66179;SDS011;52986;44.028;20.466;2023-03-23T05:43:03;36.42;;;15.98;;
66179;SDS011;52986;44.028;20.466;2023-03-23T05:45:28;37.30;;;16.48;;
66179;SDS011;52986;44.028;20.466;2023-03-23T05:47:56;38.80;;;18.67;;
66179;SDS011;52986;44.028;20.466;2023-03-23T05:50:22;40.50;;;19.33;;
66179;SDS011;52986;44.028;20.466;2023-03-23T05:52:47;46.20;;;19.98;;
66179;SDS011;52986;44.028;20.466;2023-03-23T05:55:14;42.65;;;19.77;;
66179;SDS011;52986;44.028;20.466;2023-03-23T05:57:40;40.63;;;19.05;;
66179;SDS011;52986;44.028;20.466;2023-03-23T06:00:05;39.90;;;19.40;;
66179;SDS011;52986;44.028;20.466;2023-03-23T06:02:36;45.35;;;20.27;;
66179;SDS011;52986;44.028;20.466;2023-03-23T06:05:02;44.97;;;19.95;;
66179;SDS011;52986;44.028;20.466;2023-03-23T06:07:27;43.42;;;19.70;;
66179;SDS011;52986;44.028;20.466;2023-03-23T06:09:53;44.28;;;20.10;;
66179;SDS011;52986;44.028;20.466;2023-03-23T06:12:18;41.80;;;20.75;;
66179;SDS011;52986;44.028;20.466;2023-03-23T06:14:47;44.42;;;19.80;;
66179;SDS011;52986;44.028;20.466;2023-03-23T06:17:14;40.20;;;19.48;;
66179;SDS011;52986;44.028;20.466;2023-03-23T06:19:41;43.10;;;18.60;;
66179;SDS011;52986;44.028;20.466;2023-03-23T06:22:06;42.92;;;19.55;;
66179;SDS011;52986;44.028;20.466;2023-03-23T06:24:47;45.90;;;19.88;;
66179;SDS011;52986;44.028;20.466;2023-03-23T06:27:14;42.05;;;18.65;;
66179;SDS011;52986;44.028;20.466;2023-03-23T06:29:40;38.70;;;18.73;;
66179;SDS011;52986;44.028;20.466;2023-03-23T06:32:06;35.83;;;17.58;;
66179;SDS011;52986;44.028;20.466;2023-03-23T06:37:24;37.80;;;18.60;;
66179;SDS011;52986;44.028;20.466;2023-03-23T06:39:58;38.38;;;18.25;;
66179;SDS011;52986;44.028;20.466;2023-03-23T06:42:24;34.65;;;17.50;;
66179;SDS011;52986;44.028;20.466;2023-03-23T06:44:50;37.72;;;17.20;;
66179;SDS011;52986;44.028;20.466;2023-03-23T06:47:16;38.05;;;17.73;;
66179;SDS011;52986;44.028;20.466;2023-03-23T06:49:41;30.40;;;16.42;;
66179;SDS011;52986;44.028;20.466;2023-03-23T06:52:07;34.17;;;16.70;;
66179;SDS011;52986;44.028;20.466;2023-03-23T06:54:33;31.42;;;16.35;;
66179;SDS011;52986;44.028;20.466;2023-03-23T06:56:58;32.70;;;16.10;;
66179;SDS011;52986;44.028;20.466;2023-03-23T06:59:24;31.33;;;15.55;;
66179;SDS011;52986;44.028;20.466;2023-03-23T07:01:49;30.77;;;16.50;;
66179;SDS011;52986;44.028;20.466;2023-03-23T07:04:15;32.13;;;17.38;;
66179;SDS011;52986;44.028;20.466;2023-03-23T07:06:41;27.05;;;15.30;;
66179;SDS011;52986;44.028;20.466;2023-03-23T07:09:06;25.85;;;16.02;;
66179;SDS011;52986;44.028;20.466;2023-03-23T07:11:32;30.30;;;17.63;;
66179;SDS011;52986;44.028;20.466;2023-03-23T07:13:57;35.75;;;18.30;;
66179;SDS011;52986;44.028;20.466;2023-03-23T07:16:23;31.85;;;18.98;;
66179;SDS011;52986;44.028;20.466;2023-03-23T07:18:48;31.70;;;18.70;;
66179;SDS011;52986;44.028;20.466;2023-03-23T07:21:13;34.17;;;19.45;;
66179;SDS011;52986;44.028;20.466;2023-03-23T07:23:39;33.10;;;19.63;;
66179;SDS011;52986;44.028;20.466;2023-03-23T07:26:05;27.85;;;18.45;;
66179;SDS011;52986;44.028;20.466;2023-03-23T07:28:31;47.67;;;20.70;;
66179;SDS011;52986;44.028;20.466;2023-03-23T07:30:57;28.38;;;19.23;;
66179;SDS011;52986;44.028;20.466;2023-03-23T07:33:22;29.00;;;19.27;;
66179;SDS011;52986;44.028;20.466;2023-03-23T07:35:48;33.38;;;21.45;;
66179;SDS011;52986;44.028;20.466;2023-03-23T07:38:14;33.30;;;20.92;;
66179;SDS011;52986;44.028;20.466;2023-03-23T07:40:39;33.22;;;19.80;;
66179;SDS011;52986;44.028;20.466;2023-03-23T07:43:05;29.80;;;19.75;;
66179;SDS011;52986;44.028;20.466;2023-03-23T07:45:32;28.27;;;20.35;;
66179;SDS011;52986;44.028;20.466;2023-03-23T07:47:58;24.85;;;17.27;;
66179;SDS011;52986;44.028;20.466;2023-03-23T07:50:24;30.10;;;18.55;;
66179;SDS011;52986;44.028;20.466;2023-03-23T07:52:53;26.88;;;18.92;;
66179;SDS011;52986;44.028;20.466;2023-03-23T07:55:20;31.20;;;18.55;;
66179;SDS011;52986;44.028;20.466;2023-03-23T07:57:48;27.63;;;15.45;;
66179;SDS011;52986;44.028;20.466;2023-03-23T08:00:15;25.00;;;15.07;;
66179;SDS011;52986;44.028;20.466;2023-03-23T08:02:48;23.35;;;14.00;;
66179;SDS011;52986;44.028;20.466;2023-03-23T08:05:21;20.48;;;12.88;;
66179;SDS011;52986;44.028;20.466;2023-03-23T08:07:47;16.67;;;9.88;;
66179;SDS011;52986;44.028;20.466;2023-03-23T08:10:14;12.98;;;6.78;;
66179;SDS011;52986;44.028;20.466;2023-03-23T08:12:42;11.75;;;7.00;;
66179;SDS011;52986;44.028;20.466;2023-03-23T08:15:09;15.23;;;7.70;;
66179;SDS011;52986;44.028;20.466;2023-03-23T08:17:42;13.43;;;6.80;;
66179;SDS011;52986;44.028;20.466;2023-03-23T08:20:09;15.43;;;7.10;;
66179;SDS011;52986;44.028;20.466;2023-03-23T08:22:41;15.00;;;6.88;;
66179;SDS011;52986;44.028;20.466;2023-03-23T08:25:10;20.70;;;7.00;;
66179;SDS011;52986;44.028;20.466;2023-03-23T08:27:37;15.00;;;6.65;;
66179;SDS011;52986;44.028;20.466;2023-03-23T08:30:08;12.70;;;6.85;;
66179;SDS011;52986;44.028;20.466;2023-03-23T08:32:38;12.10;;;6.45;;
66179;SDS011;52986;44.028;20.466;2023-03-23T08:35:05;13.43;;;7.20;;
66179;SDS011;52986;44.028;20.466;2023-03-23T08:37:32;16.45;;;7.45;;
66179;SDS011;52986;44.028;20.466;2023-03-23T08:39:57;15.85;;;7.40;;
66179;SDS011;52986;44.028;20.466;2023-03-23T08:42:23;15.15;;;6.85;;
66179;SDS011;52986;44.028;20.466;2023-03-23T08:44:50;12.82;;;6.43;;
66179;SDS011;52986;44.028;20.466;2023-03-23T08:47:15;10.90;;;5.70;;
66179;SDS011;52986;44.028;20.466;2023-03-23T08:49:41;11.80;;;5.15;;
66179;SDS011;52986;44.028;20.466;2023-03-23T08:52:07;11.93;;;5.38;;
66179;SDS011;52986;44.028;20.466;2023-03-23T08:54:33;11.63;;;6.22;;
66179;SDS011;52986;44.028;20.466;2023-03-23T08:57:01;11.35;;;6.15;;
66179;SDS011;52986;44.028;20.466;2023-03-23T08:59:27;14.65;;;6.55;;
66179;SDS011;52986;44.028;20.466;2023-03-23T09:01:53;11.38;;;5.70;;
66179;SDS011;52986;44.028;20.466;2023-03-23T09:04:19;10.45;;;5.18;;
66179;SDS011;52986;44.028;20.466;2023-03-23T09:06:44;11.15;;;5.40;;
66179;SDS011;52986;44.028;20.466;2023-03-23T09:09:11;11.95;;;6.00;;
66179;SDS011;52986;44.028;20.466;2023-03-23T09:11:37;11.48;;;5.75;;
66179;SDS011;52986;44.028;20.466;2023-03-23T09:14:03;16.40;;;6.80;;
66179;SDS011;52986;44.028;20.466;2023-03-23T09:16:31;14.13;;;5.63;;
66179;SDS011;52986;44.028;20.466;2023-03-23T09:18:57;20.33;;;6.13;;
66179;SDS011;52986;44.028;20.466;2023-03-23T09:21:24;14.43;;;6.72;;
66179;SDS011;52986;44.028;20.466;2023-03-23T09:23:50;11.75;;;5.70;;
66179;SDS011;52986;44.028;20.466;2023-03-23T09:26:16;11.05;;;5.65;;
66179;SDS011;52986;44.028;20.466;2023-03-23T09:28:42;10.07;;;4.82;;
66179;SDS011;52986;44.028;20.466;2023-03-23T09:31:09;10.88;;;4.90;;
66179;SDS011;52986;44.028;20.466;2023-03-23T09:33:35;9.52;;;3.53;;
66179;SDS011;52986;44.028;20.466;2023-03-23T09:36:01;8.18;;;3.35;;
66179;SDS011;52986;44.028;20.466;2023-03-23T09:38:28;8.05;;;3.42;;
66179;SDS011;52986;44.028;20.466;2023-03-23T09:49:04;17.92;;;4.05;;
66179;SDS011;52986;44.028;20.466;2023-03-23T09:57:01;10.27;;;3.60;;
66179;SDS011;52986;44.028;20.466;2023-03-23T09:59:35;8.43;;;3.63;;
66179;SDS011;52986;44.028;20.466;2023-03-23T10:04:51;10.00;;;3.63;;
66179;SDS011;52986;44.028;20.466;2023-03-23T10:07:21;8.98;;;3.88;;
66179;SDS011;52986;44.028;20.466;2023-03-23T10:09:52;7.65;;;3.47;;
66179;SDS011;52986;44.028;20.466;2023-03-23T10:12:36;10.15;;;4.25;;
66179;SDS011;52986;44.028;20.466;2023-03-23T10:25:46;9.73;;;3.97;;
66179;SDS011;52986;44.028;20.466;2023-03-23T10:28:32;17.23;;;5.18;;
66179;SDS011;52986;44.028;20.466;2023-03-23T10:31:00;12.38;;;4.63;;
66179;SDS011;52986;44.028;20.466;2023-03-23T10:36:30;11.50;;;4.07;;
66179;SDS011;52986;44.028;20.466;2023-03-23T10:41:31;10.98;;;3.70;;
66179;SDS011;52986;44.028;20.466;2023-03-23T10:43:56;9.65;;;4.40;;
66179;SDS011;52986;44.028;20.466;2023-03-23T10:48:47;9.77;;;4.17;;
66179;SDS011;52986;44.028;20.466;2023-03-23T10:51:16;7.38;;;3.67;;
66179;SDS011;52986;44.028;20.466;2023-03-23T10:53:50;8.35;;;3.50;;
66179;SDS011;52986;44.028;20.466;2023-03-23T10:56:22;9.48;;;3.75;;
66179;SDS011;52986;44.028;20.466;2023-03-23T10:58:52;7.95;;;4.00;;
66179;SDS011;52986;44.028;20.466;2023-03-23T11:01:18;12.05;;;3.67;;
66179;SDS011;52986;44.028;20.466;2023-03-23T11:03:47;11.02;;;4.28;;
66179;SDS011;52986;44.028;20.466;2023-03-23T11:06:22;10.32;;;3.17;;
66179;SDS011;52986;44.028;20.466;2023-03-23T11:08:56;10.80;;;3.53;;
66179;SDS011;52986;44.028;20.466;2023-03-23T11:11:32;8.40;;;3.35;;
66179;SDS011;52986;44.028;20.466;2023-03-23T11:14:31;8.00;;;3.40;;
66179;SDS011;52986;44.028;20.466;2023-03-23T11:17:03;8.43;;;3.92;;
66179;SDS011;52986;44.028;20.466;2023-03-23T11:19:32;6.82;;;3.10;;
66179;SDS011;52986;44.028;20.466;2023-03-23T11:24:30;8.40;;;3.13;;
66179;SDS011;52986;44.028;20.466;2023-03-23T11:26:58;6.90;;;2.90;;
66179;SDS011;52986;44.028;20.466;2023-03-23T11:29:24;6.90;;;3.40;;
66179;SDS011;52986;44.028;20.466;2023-03-23T11:34:30;6.05;;;3.08;;
66179;SDS011;52986;44.028;20.466;2023-03-23T11:37:01;6.35;;;3.00;;
66179;SDS011;52986;44.028;20.466;2023-03-23T11:39:46;8.80;;;3.53;;
66179;SDS011;52986;44.028;20.466;2023-03-23T11:42:21;10.13;;;3.83;;
66179;SDS011;52986;44.028;20.466;2023-03-23T11:44:52;8.65;;;3.13;;
66179;SDS011;52986;44.028;20.466;2023-03-23T11:47:27;7.43;;;3.38;;
66179;SDS011;52986;44.028;20.466;2023-03-23T11:50:04;10.13;;;3.78;;
66179;SDS011;52986;44.028;20.466;2023-03-23T11:55:11;9.80;;;3.53;;
66179;SDS011;52986;44.028;20.466;2023-03-23T11:57:40;8.07;;;3.88;;
66179;SDS011;52986;44.028;20.466;2023-03-23T12:00:40;9.00;;;3.90;;
66179;SDS011;52986;44.028;20.466;2023-03-23T12:03:00;6.70;;;3.13;;
66179;SDS011;52986;44.028;20.466;2023-03-23T12:13:34;8.75;;;3.50;;
66179;SDS011;52986;44.028;20.466;2023-03-23T12:18:58;6.93;;;3.20;;
66179;SDS011;52986;44.028;20.466;2023-03-23T12:24:30;7.65;;;3.90;;
66179;SDS011;52986;44.028;20.466;2023-03-23T12:29:35;9.48;;;3.40;;
66179;SDS011;52986;44.028;20.466;2023-03-23T12:48:41;7.75;;;3.60;;
66179;SDS011;52986;44.028;20.466;2023-03-23T12:51:17;8.68;;;3.55;;
66179;SDS011;52986;44.028;20.466;2023-03-23T12:56:25;8.55;;;3.60;;
66179;SDS011;52986;44.028;20.466;2023-03-23T12:59:30;9.07;;;3.50;;
66179;SDS011;52986;44.028;20.466;2023-03-23T13:05:25;9.68;;;3.72;;
66179;SDS011;52986;44.028;20.466;2023-03-23T13:08:35;11.05;;;3.42;;
66179;SDS011;52986;44.028;20.466;2023-03-23T13:10:48;9.07;;;3.80;;
66179;SDS011;52986;44.028;20.466;2023-03-23T13:13:25;8.70;;;3.30;;
66179;SDS011;52986;44.028;20.466;2023-03-23T13:19:24;8.18;;;3.30;;
66179;SDS011;52986;44.028;20.466;2023-03-23T13:24:29;7.65;;;3.20;;
66179;SDS011;52986;44.028;20.466;2023-03-23T13:27:00;9.95;;;3.50;;
66179;SDS011;52986;44.028;20.466;2023-03-23T13:29:26;13.02;;;4.72;;
66179;SDS011;52986;44.028;20.466;2023-03-23T13:32:03;11.98;;;5.03;;
66179;SDS011;52986;44.028;20.466;2023-03-23T13:34:31;10.30;;;4.10;;
66179;SDS011;52986;44.028;20.466;2023-03-23T13:37:04;10.30;;;3.35;;
66179;SDS011;52986;44.028;20.466;2023-03-23T13:47:35;8.70;;;3.70;;
66179;SDS011;52986;44.028;20.466;2023-03-23T13:55:18;8.40;;;3.45;;
66179;SDS011;52986;44.028;20.466;2023-03-23T13:57:53;7.38;;;3.13;;
66179;SDS011;52986;44.028;20.466;2023-03-23T14:02:50;8.32;;;3.50;;
66179;SDS011;52986;44.028;20.466;2023-03-23T14:07:54;9.33;;;3.40;;
66179;SDS011;52986;44.028;20.466;2023-03-23T14:16:23;8.63;;;3.55;;
66179;SDS011;52986;44.028;20.466;2023-03-23T14:18:56;8.05;;;3.85;;
66179;SDS011;52986;44.028;20.466;2023-03-23T14:21:31;9.80;;;3.60;;
66179;SDS011;52986;44.028;20.466;2023-03-23T14:24:01;10.90;;;3.72;;
66179;SDS011;52986;44.028;20.466;2023-03-23T14:26:28;8.18;;;3.35;;
66179;SDS011;52986;44.028;20.466;2023-03-23T14:28:54;7.90;;;3.28;;
66179;SDS011;52986;44.028;20.466;2023-03-23T14:31:20;7.50;;;3.15;;
66179;SDS011;52986;44.028;20.466;2023-03-23T14:33:48;7.68;;;3.30;;
66179;SDS011;52986;44.028;20.466;2023-03-23T14:36:22;8.73;;;3.33;;
66179;SDS011;52986;44.028;20.466;2023-03-23T14:39:04;8.35;;;3.22;;
66179;SDS011;52986;44.028;20.466;2023-03-23T14:41:35;9.63;;;3.50;;
66179;SDS011;52986;44.028;20.466;2023-03-23T14:44:01;9.85;;;3.58;;
66179;SDS011;52986;44.028;20.466;2023-03-23T14:46:30;9.57;;;3.70;;
66179;SDS011;52986;44.028;20.466;2023-03-23T14:48:58;8.15;;;3.33;;
66179;SDS011;52986;44.028;20.466;2023-03-23T14:51:26;8.05;;;3.40;;
66179;SDS011;52986;44.028;20.466;2023-03-23T14:53:52;9.52;;;3.50;;
66179;SDS011;52986;44.028;20.466;2023-03-23T14:56:20;8.60;;;3.40;;
66179;SDS011;52986;44.028;20.466;2023-03-23T14:58:49;9.45;;;3.35;;
66179;SDS011;52986;44.028;20.466;2023-03-23T15:03:52;12.30;;;3.63;;
66179;SDS011;52986;44.028;20.466;2023-03-23T15:06:23;10.20;;;3.63;;
66179;SDS011;52986;44.028;20.466;2023-03-23T15:08:53;7.20;;;3.30;;
66179;SDS011;52986;44.028;20.466;2023-03-23T15:11:23;9.10;;;3.50;;
66179;SDS011;52986;44.028;20.466;2023-03-23T15:13:53;8.45;;;3.47;;
66179;SDS011;52986;44.028;20.466;2023-03-23T15:16:24;8.73;;;3.53;;
66179;SDS011;52986;44.028;20.466;2023-03-23T15:18:59;8.10;;;3.35;;
66179;SDS011;52986;44.028;20.466;2023-03-23T15:21:35;11.02;;;3.42;;
66179;SDS011;52986;44.028;20.466;2023-03-23T15:24:44;8.40;;;3.20;;
66179;SDS011;52986;44.028;20.466;2023-03-23T15:29:34;11.02;;;3.70;;
66179;SDS011;52986;44.028;20.466;2023-03-23T15:32:22;8.27;;;3.60;;
66179;SDS011;52986;44.028;20.466;2023-03-23T15:34:49;8.85;;;3.50;;
66179;SDS011;52986;44.028;20.466;2023-03-23T15:37:49;8.00;;;3.15;;
66179;SDS011;52986;44.028;20.466;2023-03-23T15:40:15;10.93;;;3.60;;
66179;SDS011;52986;44.028;20.466;2023-03-23T15:50:52;9.50;;;3.53;;
66179;SDS011;52986;44.028;20.466;2023-03-23T15:52:53;10.93;;;3.60;;
66179;SDS011;52986;44.028;20.466;2023-03-23T15:55:26;8.73;;;3.90;;
66179;SDS011;52986;44.028;20.466;2023-03-23T15:57:57;9.27;;;4.18;;
66179;SDS011;52986;44.028;20.466;2023-03-23T16:00:24;16.40;;;6.82;;
66179;SDS011;52986;44.028;20.466;2023-03-23T16:03:01;13.70;;;6.10;;
66179;SDS011;52986;44.028;20.466;2023-03-23T16:05:30;11.98;;;4.70;;
66179;SDS011;52986;44.028;20.466;2023-03-23T16:07:56;11.52;;;4.43;;
66179;SDS011;52986;44.028;20.466;2023-03-23T16:10:23;9.40;;;4.43;;
66179;SDS011;52986;44.028;20.466;2023-03-23T16:12:49;14.27;;;5.82;;
66179;SDS011;52986;44.028;20.466;2023-03-23T16:15:15;13.52;;;6.80;;
66179;SDS011;52986;44.028;20.466;2023-03-23T16:17:41;11.77;;;5.55;;
66179;SDS011;52986;44.028;20.466;2023-03-23T16:20:10;15.63;;;5.80;;
66179;SDS011;52986;44.028;20.466;2023-03-23T16:22:37;12.57;;;6.25;;
66179;SDS011;52986;44.028;20.466;2023-03-23T16:25:02;10.70;;;3.95;;
66179;SDS011;52986;44.028;20.466;2023-03-23T16:27:28;15.60;;;4.20;;
66179;SDS011;52986;44.028;20.466;2023-03-23T16:29:54;16.13;;;6.57;;
66179;SDS011;52986;44.028;20.466;2023-03-23T16:32:19;27.50;;;10.68;;
66179;SDS011;52986;44.028;20.466;2023-03-23T16:34:44;24.43;;;9.73;;
66179;SDS011;52986;44.028;20.466;2023-03-23T16:37:10;28.27;;;11.10;;
66179;SDS011;52986;44.028;20.466;2023-03-23T16:39:36;43.88;;;13.55;;
66179;SDS011;52986;44.028;20.466;2023-03-23T16:42:01;32.80;;;12.13;;
66179;SDS011;52986;44.028;20.466;2023-03-23T16:44:27;22.50;;;9.13;;
66179;SDS011;52986;44.028;20.466;2023-03-23T16:46:52;21.17;;;9.70;;
66179;SDS011;52986;44.028;20.466;2023-03-23T16:49:18;28.95;;;11.75;;
66179;SDS011;52986;44.028;20.466;2023-03-23T16:51:43;41.30;;;12.75;;
66179;SDS011;52986;44.028;20.466;2023-03-23T16:54:09;42.90;;;13.65;;
66179;SDS011;52986;44.028;20.466;2023-03-23T16:56:34;37.42;;;10.02;;
66179;SDS011;52986;44.028;20.466;2023-03-23T16:59:00;46.63;;;10.13;;
66179;SDS011;52986;44.028;20.466;2023-03-23T17:01:25;37.22;;;10.20;;
66179;SDS011;52986;44.028;20.466;2023-03-23T17:03:50;34.22;;;9.35;;
66179;SDS011;52986;44.028;20.466;2023-03-23T17:06:16;31.67;;;10.88;;